Time;durP1;ratioP1;P1;durP2;ratioP2;P2;SDS_P1;SDS_P2;PMS_P1;PMS_P2;Temp;Humidity;BMP_temperature;BMP_pressure;BME280_temperature;BME280_humidity;BME280_pressure;Samples;Min_cycle;Max_cycle;Signal;HPM_P1;HPM_P2
2023/12/31 00:01:47;;;;;;;;;5.00;5.00;;;;;;;;5090487;28;28498;-71
2023/12/31 00:04:12;;;;;;;;;7.33;5.00;;;;;;;;5089047;27;28885;-72
2023/12/31 00:06:38;;;;;;;;;4.67;4.00;;;;;;;;5090184;28;28698;-72
2023/12/31 00:09:03;;;;;;;;;5.00;5.00;;;;;;;;5090186;27;28373;-71
2023/12/31 00:11:28;;;;;;;;;4.33;4.33;;;;;;;;5095043;27;28641;-73
2023/12/31 00:13:53;;;;;;;;;4.00;4.00;;;;;;;;5088978;27;29134;-73
2023/12/31 00:16:18;;;;;;;;;6.00;5.00;;;;;;;;5089884;28;28789;-74
2023/12/31 00:18:44;;;;;;;;;4.00;4.00;;;;;;;;5077842;28;28523;-73
2023/12/31 00:21:09;;;;;;;;;3.00;3.00;;;;;;;;5071187;28;28684;-72
2023/12/31 00:23:35;;;;;;;;;3.33;3.33;;;;;;;;5089139;28;28546;-72
2023/12/31 00:26:00;;;;;;;;;5.33;4.00;;;;;;;;5089513;28;28547;-72
2023/12/31 00:28:26;;;;;;;;;4.00;4.00;;;;;;;;5089198;27;28789;-72
2023/12/31 00:30:51;;;;;;;;;3.00;3.00;;;;;;;;5083580;27;28453;-72
2023/12/31 00:33:16;;;;;;;;;3.00;3.00;;;;;;;;5083258;28;28603;-73
2023/12/31 00:35:41;;;;;;;;;6.67;6.00;;;;;;;;5069943;28;29785;-72
2023/12/31 00:38:07;;;;;;;;;5.00;5.00;;;;;;;;5089002;27;28833;-72
2023/12/31 00:40:32;;;;;;;;;1.00;0.00;;;;;;;;5079201;28;28529;-71
2023/12/31 00:42:57;;;;;;;;;6.67;6.67;;;;;;;;5088660;27;28701;-74
2023/12/31 00:45:22;;;;;;;;;5.33;5.33;;;;;;;;5089639;28;29089;-73
2023/12/31 00:47:48;;;;;;;;;4.67;2.00;;;;;;;;5088268;27;29841;-71
2023/12/31 00:50:13;;;;;;;;;4.33;3.33;;;;;;;;5089603;27;28435;-72
2023/12/31 00:52:38;;;;;;;;;6.67;5.00;;;;;;;;5089416;28;28381;-72
2023/12/31 00:55:03;;;;;;;;;7.00;5.67;;;;;;;;5089300;28;28464;-71
2023/12/31 00:57:29;;;;;;;;;6.33;6.33;;;;;;;;5089153;27;28796;-71
2023/12/31 00:59:54;;;;;;;;;6.33;6.33;;;;;;;;5089065;27;28481;-72
2023/12/31 01:02:20;;;;;;;;;6.33;5.33;;;;;;;;5089018;28;28466;-72
2023/12/31 01:04:45;;;;;;;;;5.67;5.67;;;;;;;;5070911;28;28488;-72
2023/12/31 01:07:10;;;;;;;;;6.00;6.00;;;;;;;;5088700;27;28643;-71
2023/12/31 01:09:35;;;;;;;;;3.33;3.33;;;;;;;;5089186;28;28414;-72
2023/12/31 01:12:01;;;;;;;;;7.33;5.33;;;;;;;;5089093;27;28360;-73
2023/12/31 01:14:26;;;;;;;;;5.00;5.00;;;;;;;;5089021;28;28353;-72
2023/12/31 01:16:51;;;;;;;;;5.00;5.00;;;;;;;;5087884;28;28462;-72
2023/12/31 01:19:17;;;;;;;;;5.67;4.00;;;;;;;;5071327;28;28826;-73
2023/12/31 01:21:42;;;;;;;;;3.33;3.33;;;;;;;;5088816;28;28502;-72
2023/12/31 01:24:07;;;;;;;;;5.67;5.67;;;;;;;;5087007;28;28574;-70
2023/12/31 01:26:33;;;;;;;;;6.33;5.33;;;;;;;;5088763;27;28419;-70
2023/12/31 01:28:58;;;;;;;;;7.00;6.00;;;;;;;;5089009;28;28455;-72
2023/12/31 01:31:24;;;;;;;;;6.00;4.00;;;;;;;;5089568;28;28475;-73
2023/12/31 01:33:49;;;;;;;;;7.67;4.00;;;;;;;;5089077;28;28474;-71
2023/12/31 01:36:17;;;;;;;;;5.67;5.67;;;;;;;;5089125;28;29142;-72
2023/12/31 01:38:43;;;;;;;;;4.67;3.67;;;;;;;;5089536;28;28745;-72
2023/12/31 01:41:09;;;;;;;;;6.00;6.00;;;;;;;;5088623;28;28451;-70
2023/12/31 01:43:35;;;;;;;;;6.00;5.00;;;;;;;;5089024;28;28424;-70
2023/12/31 01:46:00;;;;;;;;;6.67;5.67;;;;;;;;5088796;28;28330;-70
2023/12/31 01:48:25;;;;;;;;;5.67;5.33;;;;;;;;5070844;28;29563;-72
2023/12/31 01:50:51;;;;;;;;;5.33;4.33;;;;;;;;5088958;28;28466;-72
2023/12/31 01:53:18;;;;;;;;;5.67;5.67;;;;;;;;5089028;28;28428;-71
2023/12/31 01:55:43;;;;;;;;;6.33;5.33;;;;;;;;5088385;27;28612;-71
2023/12/31 01:58:10;;;;;;;;;5.00;5.00;;;;;;;;5086464;28;28827;-71
2023/12/31 02:00:35;;;;;;;;;4.67;4.67;;;;;;;;5060229;28;28436;-72
2023/12/31 02:03:00;;;;;;;;;8.33;7.33;;;;;;;;5088619;27;28492;-71
2023/12/31 02:05:25;;;;;;;;;6.33;6.00;;;;;;;;5088257;28;28463;-72
2023/12/31 02:07:51;;;;;;;;;6.00;5.00;;;;;;;;5088016;28;29161;-70
2023/12/31 02:10:16;;;;;;;;;5.00;5.00;;;;;;;;5088299;28;28439;-71
2023/12/31 02:12:42;;;;;;;;;6.67;5.67;;;;;;;;5087889;27;28709;-70
2023/12/31 02:15:08;;;;;;;;;4.00;4.00;;;;;;;;5088827;28;28772;-71
2023/12/31 02:17:33;;;;;;;;;7.33;5.00;;;;;;;;5087941;27;28490;-71
2023/12/31 02:19:59;;;;;;;;;6.00;6.00;;;;;;;;5087973;28;28732;-70
2023/12/31 02:22:25;;;;;;;;;5.67;5.67;;;;;;;;5069415;28;29516;-71
2023/12/31 02:24:51;;;;;;;;;5.00;5.00;;;;;;;;5088127;27;28770;-71
2023/12/31 02:27:17;;;;;;;;;6.67;6.00;;;;;;;;5107662;22;28556;-79
2023/12/31 02:29:42;;;;;;;;;6.00;6.00;;;;;;;;5095450;27;28959;-79
2023/12/31 02:32:07;;;;;;;;;6.33;5.33;;;;;;;;5063997;27;28488;-80
2023/12/31 02:34:33;;;;;;;;;6.33;6.00;;;;;;;;5090026;27;29226;-80
2023/12/31 02:36:58;;;;;;;;;7.33;4.33;;;;;;;;5090762;27;28469;-77
2023/12/31 02:39:24;;;;;;;;;8.00;6.00;;;;;;;;5110574;27;28416;-79
2023/12/31 02:41:49;;;;;;;;;6.33;5.00;;;;;;;;5110506;27;28552;-79
2023/12/31 02:44:15;;;;;;;;;4.00;4.00;;;;;;;;5092567;27;29786;-78
2023/12/31 02:46:40;;;;;;;;;3.67;3.67;;;;;;;;5110621;27;29534;-78
2023/12/31 02:49:08;;;;;;;;;7.00;5.00;;;;;;;;5111323;27;28943;-79
2023/12/31 02:51:34;;;;;;;;;5.67;5.67;;;;;;;;5110620;27;28991;-79
2023/12/31 02:53:59;;;;;;;;;7.33;5.67;;;;;;;;5111509;27;28439;-79
2023/12/31 02:56:25;;;;;;;;;6.67;5.67;;;;;;;;5113545;27;28582;-81
2023/12/31 02:58:50;;;;;;;;;5.33;4.00;;;;;;;;5114234;27;27923;-80
2023/12/31 03:01:15;;;;;;;;;4.33;4.33;;;;;;;;5112188;27;28758;-80
2023/12/31 03:03:40;;;;;;;;;4.33;4.33;;;;;;;;5110152;27;28610;-80
2023/12/31 03:06:06;;;;;;;;;5.00;4.00;;;;;;;;5100448;27;28583;-80
2023/12/31 03:08:31;;;;;;;;;6.67;5.00;;;;;;;;5110623;27;28588;-80
2023/12/31 03:10:57;;;;;;;;;3.67;3.67;;;;;;;;5108625;27;28407;-80
2023/12/31 03:13:22;;;;;;;;;5.00;4.33;;;;;;;;5109969;27;28690;-80
2023/12/31 03:15:47;;;;;;;;;5.33;5.33;;;;;;;;5109734;27;28624;-78
2023/12/31 03:18:13;;;;;;;;;5.33;5.00;;;;;;;;5104953;27;28381;-77
2023/12/31 03:20:38;;;;;;;;;1.67;1.67;;;;;;;;5107135;27;28686;-80
2023/12/31 03:23:03;;;;;;;;;5.33;4.00;;;;;;;;5097919;27;28795;-79
2023/12/31 03:25:29;;;;;;;;;4.67;4.33;;;;;;;;5097716;27;28727;-81
2023/12/31 03:27:54;;;;;;;;;3.33;2.33;;;;;;;;5078381;28;28343;-80
2023/12/31 03:30:19;;;;;;;;;4.33;4.00;;;;;;;;5093165;27;29015;-79
2023/12/31 03:32:44;;;;;;;;;4.33;2.67;;;;;;;;5065662;27;28689;-80
2023/12/31 03:35:09;;;;;;;;;4.33;4.33;;;;;;;;5110537;27;28436;-80
2023/12/31 03:37:35;;;;;;;;;5.00;4.67;;;;;;;;5110523;27;28522;-81
2023/12/31 03:40:00;;;;;;;;;2.33;2.33;;;;;;;;5109476;27;28878;-80
2023/12/31 03:42:25;;;;;;;;;3.33;3.33;;;;;;;;5110515;27;28428;-79
2023/12/31 03:44:51;;;;;;;;;2.00;2.00;;;;;;;;5111062;27;28564;-79
2023/12/31 03:47:16;;;;;;;;;2.33;2.33;;;;;;;;5109686;27;28424;-80
2023/12/31 03:49:41;;;;;;;;;3.33;3.33;;;;;;;;5110854;27;28596;-79
2023/12/31 03:52:06;;;;;;;;;3.67;2.67;;;;;;;;5095997;27;29708;-79
2023/12/31 03:54:32;;;;;;;;;3.00;3.00;;;;;;;;5111032;27;28354;-81
2023/12/31 03:56:57;;;;;;;;;5.33;4.33;;;;;;;;5090801;27;28556;-79
2023/12/31 03:59:22;;;;;;;;;7.00;5.33;;;;;;;;5092013;27;29379;-81
2023/12/31 04:01:50;;;;;;;;;3.67;2.67;;;;;;;;5076910;28;29924;-79
2023/12/31 04:04:15;;;;;;;;;4.67;4.00;;;;;;;;5093053;27;28795;-80
2023/12/31 04:06:43;;;;;;;;;4.33;2.33;;;;;;;;5075312;28;28634;-80
2023/12/31 04:09:10;;;;;;;;;2.67;1.67;;;;;;;;5091959;27;29307;-79
2023/12/31 04:11:35;;;;;;;;;3.00;2.33;;;;;;;;5073291;28;29801;-79
2023/12/31 04:14:01;;;;;;;;;3.33;3.33;;;;;;;;5093330;27;28406;-80
2023/12/31 04:16:26;;;;;;;;;5.00;3.67;;;;;;;;5088522;27;28592;-80
2023/12/31 04:18:51;;;;;;;;;3.00;3.00;;;;;;;;5093377;27;28583;-80
2023/12/31 04:21:16;;;;;;;;;1.67;1.67;;;;;;;;5094339;27;29050;-79
2023/12/31 04:23:42;;;;;;;;;2.33;1.33;;;;;;;;5095034;27;28468;-79
2023/12/31 04:26:07;;;;;;;;;0.00;0.00;;;;;;;;5093829;27;28414;-79
2023/12/31 04:28:32;;;;;;;;;2.00;1.67;;;;;;;;5093350;27;28555;-82
2023/12/31 04:30:58;;;;;;;;;0.67;0.67;;;;;;;;5089743;27;29530;-80
2023/12/31 04:33:23;;;;;;;;;1.00;1.00;;;;;;;;5093367;27;28564;-79
2023/12/31 04:35:48;;;;;;;;;0.67;0.67;;;;;;;;5093003;27;28809;-81
2023/12/31 04:38:13;;;;;;;;;0.67;0.67;;;;;;;;5100158;27;28650;-79
2023/12/31 04:40:39;;;;;;;;;0.67;0.67;;;;;;;;5091180;27;28467;-82
2023/12/31 04:43:04;;;;;;;;;0.67;0.67;;;;;;;;5082752;27;29018;-79
2023/12/31 04:45:29;;;;;;;;;1.33;0.33;;;;;;;;5086058;28;28849;-78
2023/12/31 04:47:54;;;;;;;;;0.00;0.00;;;;;;;;5095329;27;28927;-78
2023/12/31 04:50:26;;;;;;;;;0.00;0.00;;;;;;;;5091048;27;29205;-80
2023/12/31 04:52:54;;;;;;;;;1.50;0.00;;;;;;;;5090627;27;28547;-80
2023/12/31 04:55:20;;;;;;;;;0.33;0.33;;;;;;;;5097776;27;28350;-81
2023/12/31 04:57:45;;;;;;;;;0.33;0.00;;;;;;;;5097749;27;28858;-81
2023/12/31 05:00:11;;;;;;;;;0.00;0.00;;;;;;;;5080185;28;29734;-83
2023/12/31 05:02:36;;;;;;;;;0.00;0.00;;;;;;;;5096289;27;28728;-82
2023/12/31 05:05:03;;;;;;;;;1.67;0.00;;;;;;;;5097293;27;27912;-81
2023/12/31 05:07:28;;;;;;;;;0.00;0.00;;;;;;;;5094933;27;28808;-80
2023/12/31 05:09:53;;;;;;;;;0.00;0.00;;;;;;;;5093274;27;28894;-80
2023/12/31 05:12:19;;;;;;;;;0.67;0.67;;;;;;;;5094106;27;28417;-79
2023/12/31 05:14:44;;;;;;;;;0.00;0.00;;;;;;;;5093691;27;29056;-81
2023/12/31 05:17:09;;;;;;;;;0.00;0.00;;;;;;;;5093331;27;29465;-80
2023/12/31 05:19:34;;;;;;;;;0.67;0.00;;;;;;;;5094350;27;30003;-81
2023/12/31 05:22:00;;;;;;;;;1.00;0.33;;;;;;;;5091745;27;28445;-80
2023/12/31 05:24:25;;;;;;;;;0.00;0.00;;;;;;;;5094451;27;28548;-80
2023/12/31 05:26:50;;;;;;;;;0.00;0.00;;;;;;;;5093053;27;28485;-80
2023/12/31 05:29:15;;;;;;;;;2.00;0.00;;;;;;;;5093728;27;29470;-80
2023/12/31 05:31:40;;;;;;;;;0.00;0.00;;;;;;;;5082377;27;28035;-79
2023/12/31 05:34:06;;;;;;;;;0.00;0.00;;;;;;;;5103509;27;28409;-81
2023/12/31 05:36:31;;;;;;;;;0.00;0.00;;;;;;;;5088028;27;28669;-80
2023/12/31 05:38:56;;;;;;;;;0.00;0.00;;;;;;;;5104117;27;29477;-79
2023/12/31 05:41:21;;;;;;;;;0.00;0.00;;;;;;;;5109416;27;28463;-79
2023/12/31 05:43:47;;;;;;;;;0.33;0.00;;;;;;;;5107891;27;28830;-82
2023/12/31 05:46:12;;;;;;;;;1.00;0.00;;;;;;;;5107028;27;29006;-81
2023/12/31 05:48:38;;;;;;;;;2.00;0.00;;;;;;;;5091079;27;29491;-82
2023/12/31 05:51:03;;;;;;;;;0.67;0.00;;;;;;;;5098137;27;28542;-80
2023/12/31 05:53:28;;;;;;;;;0.00;0.00;;;;;;;;5094738;27;28635;-79
2023/12/31 05:55:53;;;;;;;;;0.67;0.00;;;;;;;;5092711;27;28413;-78
2023/12/31 05:58:19;;;;;;;;;1.33;0.33;;;;;;;;5091591;27;28582;-78
2023/12/31 06:00:44;;;;;;;;;0.00;0.00;;;;;;;;5087303;27;28555;-78
2023/12/31 06:03:10;;;;;;;;;0.67;0.00;;;;;;;;5090047;27;28492;-78
2023/12/31 06:05:35;;;;;;;;;1.00;1.00;;;;;;;;5100637;27;28891;-79
2023/12/31 06:08:00;;;;;;;;;1.00;0.00;;;;;;;;5101155;27;28563;-78
2023/12/31 06:10:25;;;;;;;;;0.00;0.00;;;;;;;;5099271;27;28496;-79
2023/12/31 06:12:50;;;;;;;;;0.00;0.00;;;;;;;;5083322;27;28927;-78
2023/12/31 06:15:16;;;;;;;;;0.33;0.00;;;;;;;;5081635;27;30499;-78
2023/12/31 06:17:41;;;;;;;;;0.00;0.00;;;;;;;;5101127;27;29639;-79
2023/12/31 06:20:07;;;;;;;;;0.00;0.00;;;;;;;;5100523;27;28872;-78
2023/12/31 06:22:32;;;;;;;;;0.00;0.00;;;;;;;;5083535;27;28863;-79
2023/12/31 06:24:58;;;;;;;;;3.33;0.00;;;;;;;;5093091;27;28813;-78
2023/12/31 06:27:24;;;;;;;;;4.00;0.00;;;;;;;;5103326;27;29495;-78
2023/12/31 06:29:50;;;;;;;;;0.00;0.00;;;;;;;;5105627;27;28799;-80
2023/12/31 06:32:16;;;;;;;;;0.00;0.00;;;;;;;;5095138;27;28504;-78
2023/12/31 06:34:41;;;;;;;;;1.00;0.00;;;;;;;;5090470;28;28494;-79
2023/12/31 06:37:06;;;;;;;;;0.00;0.00;;;;;;;;5076366;27;29880;-79
2023/12/31 06:39:33;;;;;;;;;0.00;0.00;;;;;;;;5071703;28;28690;-78
2023/12/31 06:42:01;;;;;;;;;0.00;0.00;;;;;;;;5075286;27;28625;-79
2023/12/31 06:44:28;;;;;;;;;0.00;0.00;;;;;;;;5089058;27;28560;-78
2023/12/31 06:46:53;;;;;;;;;0.67;0.00;;;;;;;;5078129;27;30835;-78
2023/12/31 06:49:19;;;;;;;;;0.00;0.00;;;;;;;;5093503;27;28898;-80
2023/12/31 06:51:45;;;;;;;;;0.67;0.00;;;;;;;;5091174;27;28462;-79
2023/12/31 06:54:10;;;;;;;;;0.00;0.00;;;;;;;;5091577;27;28447;-78
2023/12/31 06:56:36;;;;;;;;;0.00;0.00;;;;;;;;5103219;27;28416;-79
2023/12/31 06:59:02;;;;;;;;;0.00;0.00;;;;;;;;5075371;27;28501;-79
2023/12/31 07:01:28;;;;;;;;;0.00;0.00;;;;;;;;5073894;28;28718;-78
2023/12/31 07:03:53;;;;;;;;;0.00;0.00;;;;;;;;5083243;27;29505;-78
2023/12/31 07:06:19;;;;;;;;;0.33;0.00;;;;;;;;5078743;28;28896;-78
2023/12/31 07:08:44;;;;;;;;;0.00;0.00;;;;;;;;5082950;27;28811;-78
2023/12/31 07:11:10;;;;;;;;;1.33;0.00;;;;;;;;5081344;27;28430;-80
2023/12/31 07:13:36;;;;;;;;;0.00;0.00;;;;;;;;5090560;27;28553;-81
2023/12/31 07:16:01;;;;;;;;;1.00;0.00;;;;;;;;5099779;27;28454;-80
2023/12/31 07:18:27;;;;;;;;;1.00;0.00;;;;;;;;5107029;27;28427;-85
2023/12/31 07:20:54;;;;;;;;;2.00;0.00;;;;;;;;5109249;27;28477;-79
2023/12/31 07:23:20;;;;;;;;;0.00;0.00;;;;;;;;5099713;27;28445;-79
2023/12/31 07:25:45;;;;;;;;;0.67;0.00;;;;;;;;5093838;27;28657;-80
2023/12/31 07:28:10;;;;;;;;;1.00;0.00;;;;;;;;5098850;27;28793;-81
2023/12/31 07:30:36;;;;;;;;;0.33;0.00;;;;;;;;5108544;27;28823;-80
2023/12/31 07:33:01;;;;;;;;;0.00;0.00;;;;;;;;5091306;27;28737;-80
2023/12/31 07:35:26;;;;;;;;;0.00;0.00;;;;;;;;5108138;27;29307;-80
2023/12/31 07:37:52;;;;;;;;;0.00;0.00;;;;;;;;5104651;27;28538;-80
2023/12/31 07:40:17;;;;;;;;;0.33;0.00;;;;;;;;5098142;27;28492;-80
2023/12/31 07:42:42;;;;;;;;;0.00;0.00;;;;;;;;5111574;27;28528;-79
2023/12/31 07:45:08;;;;;;;;;0.00;0.00;;;;;;;;5108832;27;28509;-79
2023/12/31 07:47:35;;;;;;;;;3.33;1.00;;;;;;;;5080908;28;28551;-80
2023/12/31 07:50:02;;;;;;;;;8.00;8.00;;;;;;;;5084394;27;28555;-82
2023/12/31 07:52:28;;;;;;;;;14.33;12.00;;;;;;;;5095805;27;28670;-81
2023/12/31 07:54:53;;;;;;;;;4.33;4.33;;;;;;;;5072259;28;29443;-79
2023/12/31 07:57:18;;;;;;;;;3.00;3.00;;;;;;;;5090695;27;29066;-79
2023/12/31 07:59:44;;;;;;;;;11.67;8.33;;;;;;;;5097539;27;28802;-80
2023/12/31 08:02:09;;;;;;;;;6.33;6.33;;;;;;;;5087394;27;28841;-79
2023/12/31 08:04:34;;;;;;;;;4.67;3.33;;;;;;;;5093290;27;28862;-78
2023/12/31 08:06:59;;;;;;;;;4.67;3.00;;;;;;;;5094943;27;28498;-80
2023/12/31 08:09:25;;;;;;;;;3.67;2.00;;;;;;;;5097288;27;28647;-80
2023/12/31 08:11:50;;;;;;;;;8.67;5.00;;;;;;;;5081421;27;28800;-80
2023/12/31 08:14:16;;;;;;;;;1.00;1.00;;;;;;;;5091223;27;28496;-78
2023/12/31 08:16:41;;;;;;;;;2.33;2.33;;;;;;;;5071147;28;28712;-80
2023/12/31 08:19:06;;;;;;;;;2.33;0.67;;;;;;;;5079147;27;28398;-80
2023/12/31 08:21:31;;;;;;;;;4.00;3.00;;;;;;;;5084862;27;28770;-79
2023/12/31 08:23:57;;;;;;;;;8.67;7.00;;;;;;;;5085636;27;28448;-80
2023/12/31 08:26:22;;;;;;;;;2.67;2.67;;;;;;;;5086701;27;28552;-79
2023/12/31 08:28:47;;;;;;;;;1.33;0.33;;;;;;;;5096873;27;28586;-80
2023/12/31 08:31:16;;;;;;;;;3.33;1.00;;;;;;;;5071571;28;29923;-80
2023/12/31 08:33:41;;;;;;;;;4.33;2.67;;;;;;;;5086789;27;29547;-81
2023/12/31 08:36:07;;;;;;;;;2.00;2.00;;;;;;;;5085661;27;28634;-81
2023/12/31 08:38:32;;;;;;;;;1.00;1.00;;;;;;;;5086299;28;28551;-80
2023/12/31 08:40:58;;;;;;;;;1.00;1.00;;;;;;;;5068025;28;30376;-81
2023/12/31 08:43:23;;;;;;;;;2.00;1.00;;;;;;;;5096728;27;28709;-80
2023/12/31 08:45:50;;;;;;;;;1.00;1.00;;;;;;;;5076460;27;28571;-78
2023/12/31 08:48:17;;;;;;;;;2.00;1.00;;;;;;;;5079165;27;29242;-79
2023/12/31 08:50:42;;;;;;;;;2.00;1.00;;;;;;;;5093700;27;28797;-80
2023/12/31 08:53:08;;;;;;;;;2.00;0.00;;;;;;;;5087829;27;29395;-81
2023/12/31 08:55:33;;;;;;;;;0.33;0.00;;;;;;;;5088149;27;28570;-80
2023/12/31 08:57:58;;;;;;;;;2.00;1.00;;;;;;;;5083173;27;28717;-79
2023/12/31 09:00:24;;;;;;;;;0.67;0.67;;;;;;;;5086327;27;29043;-80
2023/12/31 09:02:49;;;;;;;;;2.67;0.67;;;;;;;;5083671;27;28625;-79
2023/12/31 09:05:14;;;;;;;;;3.67;2.33;;;;;;;;5068117;27;28549;-80
2023/12/31 09:07:40;;;;;;;;;4.67;0.67;;;;;;;;5078007;27;28550;-81
2023/12/31 09:10:06;;;;;;;;;2.00;0.00;;;;;;;;5074019;28;28567;-80
2023/12/31 09:12:31;;;;;;;;;1.67;1.67;;;;;;;;5086057;27;28579;-79
2023/12/31 09:14:56;;;;;;;;;2.00;1.00;;;;;;;;5088032;27;28540;-80
2023/12/31 09:17:22;;;;;;;;;2.00;1.00;;;;;;;;5079314;27;28782;-81
2023/12/31 09:19:47;;;;;;;;;3.33;1.67;;;;;;;;5087701;27;28623;-81
2023/12/31 09:22:13;;;;;;;;;0.33;0.33;;;;;;;;5085661;27;28568;-81
2023/12/31 09:24:40;;;;;;;;;3.50;1.00;;;;;;;;5089151;27;29173;-82
2023/12/31 09:27:08;;;;;;;;;2.33;1.00;;;;;;;;5105085;27;28654;-80
2023/12/31 09:29:36;;;;;;;;;2.00;2.00;;;;;;;;5098964;27;29405;-79
2023/12/31 09:32:01;;;;;;;;;1.00;0.00;;;;;;;;5081991;27;31343;-81
2023/12/31 09:34:26;;;;;;;;;3.00;1.00;;;;;;;;5091345;27;28618;-80
2023/12/31 09:36:52;;;;;;;;;3.00;0.00;;;;;;;;5095374;27;28621;-82
2023/12/31 09:39:17;;;;;;;;;2.33;1.00;;;;;;;;5087301;27;28730;-80
2023/12/31 09:41:42;;;;;;;;;4.67;2.00;;;;;;;;5094114;27;28484;-81
2023/12/31 09:44:07;;;;;;;;;2.00;1.00;;;;;;;;5101480;27;28968;-82
2023/12/31 09:46:37;;;;;;;;;2.67;2.00;;;;;;;;5087063;27;28613;-81
2023/12/31 09:49:03;;;;;;;;;5.67;2.67;;;;;;;;5088433;27;28588;-79
2023/12/31 09:51:29;;;;;;;;;1.00;1.00;;;;;;;;5083193;27;30558;-81
2023/12/31 09:53:55;;;;;;;;;2.00;1.00;;;;;;;;5052040;28;28515;-80
2023/12/31 09:56:22;;;;;;;;;6.67;1.33;;;;;;;;5100755;27;28856;-79
2023/12/31 09:58:48;;;;;;;;;2.00;1.00;;;;;;;;5091069;27;28454;-80
2023/12/31 10:01:14;;;;;;;;;6.33;2.33;;;;;;;;5093828;27;28837;-81
2023/12/31 10:03:40;;;;;;;;;3.00;1.67;;;;;;;;5098832;27;28539;-79
2023/12/31 10:06:06;;;;;;;;;3.00;1.00;;;;;;;;5082207;27;28589;-80
2023/12/31 10:08:32;;;;;;;;;2.00;1.00;;;;;;;;5097780;27;28429;-80
2023/12/31 10:10:58;;;;;;;;;3.00;1.00;;;;;;;;5079480;27;29940;-80
2023/12/31 10:13:23;;;;;;;;;2.00;1.00;;;;;;;;5099086;27;28578;-81
2023/12/31 10:15:51;;;;;;;;;2.00;2.00;;;;;;;;5092321;27;29020;-81
2023/12/31 10:18:16;;;;;;;;;5.00;1.67;;;;;;;;5100332;27;28898;-81
2023/12/31 10:20:41;;;;;;;;;3.67;1.33;;;;;;;;5087692;27;29129;-80
2023/12/31 10:23:07;;;;;;;;;3.67;1.00;;;;;;;;5075580;28;28681;-80
2023/12/31 10:25:33;;;;;;;;;9.67;2.67;;;;;;;;5100799;27;29034;-81
2023/12/31 10:27:58;;;;;;;;;2.00;1.00;;;;;;;;5104733;27;28954;-81
2023/12/31 10:30:24;;;;;;;;;1.33;1.33;;;;;;;;5084447;27;30987;-81
2023/12/31 10:32:49;;;;;;;;;2.00;1.00;;;;;;;;5085203;27;28536;-79
2023/12/31 10:35:21;;;;;;;;;2.00;2.00;;;;;;;;5098853;27;28421;-79
2023/12/31 10:37:46;;;;;;;;;1.33;0.33;;;;;;;;5095738;27;28484;-80
2023/12/31 10:40:19;;;;;;;;;4.33;1.67;;;;;;;;5088121;27;28831;-81
2023/12/31 10:42:46;;;;;;;;;1.00;1.00;;;;;;;;5100305;27;28342;-79
2023/12/31 10:45:12;;;;;;;;;2.00;2.00;;;;;;;;5103510;27;28442;-80
2023/12/31 10:47:38;;;;;;;;;2.33;2.00;;;;;;;;5097900;27;28547;-82
2023/12/31 10:50:06;;;;;;;;;10.33;4.00;;;;;;;;5103443;27;29854;-82
2023/12/31 10:52:32;;;;;;;;;3.75;2.00;;;;;;;;5100717;27;28469;-79
2023/12/31 10:54:58;;;;;;;;;7.00;2.33;;;;;;;;5084661;27;29013;-79
2023/12/31 10:57:24;;;;;;;;;1.00;1.00;;;;;;;;5082856;27;28985;-81
2023/12/31 10:59:52;;;;;;;;;4.33;2.00;;;;;;;;5083887;27;28475;-80
2023/12/31 11:02:21;;;;;;;;;6.75;4.00;;;;;;;;5090464;27;28532;-78
2023/12/31 11:04:47;;;;;;;;;8.33;3.00;;;;;;;;5070698;28;28517;-79
2023/12/31 11:07:17;;;;;;;;;2.67;2.00;;;;;;;;5088961;27;29626;-79
2023/12/31 11:09:43;;;;;;;;;5.00;2.50;;;;;;;;5092948;27;30802;-80
2023/12/31 11:12:08;;;;;;;;;4.00;3.25;;;;;;;;5089051;27;28649;-80
2023/12/31 11:14:36;;;;;;;;;4.33;3.00;;;;;;;;5088506;27;28840;-80
2023/12/31 11:17:21;;;;;;;;;2.50;2.00;;;;;;;;5069147;27;29720;-80
2023/12/31 11:20:05;;;;;;;;;3.00;2.75;;;;;;;;5089904;27;29301;-79
2023/12/31 11:22:36;;;;;;;;;5.25;3.00;;;;;;;;5088462;27;28922;-79
2023/12/31 11:25:03;;;;;;;;;7.33;5.67;;;;;;;;5062223;27;28673;-79
2023/12/31 11:27:31;;;;;;;;;2.33;0.33;;;;;;;;5084502;27;29001;-79
2023/12/31 11:29:58;;;;;;;;;3.25;2.00;;;;;;;;5078747;27;28464;-77
2023/12/31 11:32:23;;;;;;;;;3.00;3.00;;;;;;;;5082836;27;28931;-78
2023/12/31 11:34:51;;;;;;;;;2.33;1.33;;;;;;;;5084469;27;28968;-79
2023/12/31 11:37:17;;;;;;;;;4.33;1.67;;;;;;;;5068989;28;29006;-80
2023/12/31 11:39:46;;;;;;;;;6.67;5.00;;;;;;;;5088771;27;28832;-79
2023/12/31 11:42:11;;;;;;;;;3.75;2.00;;;;;;;;5076904;28;28565;-78
2023/12/31 11:44:37;;;;;;;;;4.67;1.33;;;;;;;;5073237;28;28695;-80
2023/12/31 11:47:03;;;;;;;;;1.67;0.67;;;;;;;;5087604;27;28558;-79
2023/12/31 11:49:29;;;;;;;;;4.67;2.33;;;;;;;;5075525;28;30353;-82
2023/12/31 11:51:57;;;;;;;;;4.33;2.67;;;;;;;;5089596;27;28631;-78
2023/12/31 11:54:24;;;;;;;;;2.67;1.67;;;;;;;;5084401;27;28669;-80
2023/12/31 11:56:52;;;;;;;;;3.00;1.33;;;;;;;;5088635;27;29447;-83
2023/12/31 11:59:18;;;;;;;;;2.25;1.25;;;;;;;;5094941;27;28719;-83
2023/12/31 12:01:45;;;;;;;;;3.67;1.00;;;;;;;;5098434;27;28819;-83
2023/12/31 12:04:11;;;;;;;;;4.50;1.25;;;;;;;;5099520;27;28505;-82
2023/12/31 12:06:36;;;;;;;;;6.33;1.00;;;;;;;;5099700;27;28570;-82
2023/12/31 12:09:02;;;;;;;;;2.00;1.00;;;;;;;;5078077;28;29767;-81
2023/12/31 12:11:27;;;;;;;;;4.00;2.00;;;;;;;;5089000;27;28775;-82
2023/12/31 12:13:52;;;;;;;;;3.67;2.00;;;;;;;;5094894;27;28829;-82
2023/12/31 12:16:18;;;;;;;;;3.33;1.00;;;;;;;;5099478;27;28222;-82
2023/12/31 12:18:43;;;;;;;;;2.33;1.33;;;;;;;;5093468;27;28616;-82
2023/12/31 12:21:09;;;;;;;;;3.00;2.00;;;;;;;;5092021;27;28596;-81
2023/12/31 12:23:34;;;;;;;;;2.00;1.00;;;;;;;;5073418;28;29472;-82
2023/12/31 12:25:59;;;;;;;;;2.67;1.67;;;;;;;;5087412;27;29290;-82
2023/12/31 12:28:25;;;;;;;;;0.00;0.00;;;;;;;;5096678;27;29043;-83
2023/12/31 12:30:50;;;;;;;;;1.75;0.50;;;;;;;;5093858;27;28848;-80
2023/12/31 12:33:15;;;;;;;;;4.67;2.33;;;;;;;;5082051;27;28916;-82
2023/12/31 12:35:44;;;;;;;;;2.00;1.00;;;;;;;;5095731;27;28572;-83
2023/12/31 12:38:10;;;;;;;;;1.00;1.00;;;;;;;;5098054;27;28594;-79
2023/12/31 12:40:36;;;;;;;;;2.00;0.75;;;;;;;;5103588;27;28643;-80
2023/12/31 12:43:02;;;;;;;;;4.00;1.00;;;;;;;;5097231;27;28494;-77
2023/12/31 12:45:28;;;;;;;;;2.00;2.00;;;;;;;;5101850;27;28626;-79
2023/12/31 12:47:58;;;;;;;;;9.33;4.33;;;;;;;;5107132;27;28564;-80
2023/12/31 12:50:25;;;;;;;;;2.50;1.50;;;;;;;;5082859;27;28740;-78
2023/12/31 12:52:51;;;;;;;;;7.00;2.00;;;;;;;;5084869;27;28976;-81
2023/12/31 12:55:16;;;;;;;;;2.00;1.00;;;;;;;;5102466;27;28669;-80
2023/12/31 12:57:41;;;;;;;;;3.00;2.67;;;;;;;;5103004;27;29194;-80
2023/12/31 13:00:07;;;;;;;;;3.67;2.00;;;;;;;;5105108;27;28960;-81
2023/12/31 13:02:33;;;;;;;;;3.00;1.67;;;;;;;;5104139;27;28630;-79
2023/12/31 13:04:59;;;;;;;;;2.00;2.00;;;;;;;;5102950;27;28713;-80
2023/12/31 13:07:24;;;;;;;;;9.00;2.33;;;;;;;;5084848;27;30082;-81
2023/12/31 13:09:49;;;;;;;;;1.33;1.00;;;;;;;;5082626;27;28861;-78
2023/12/31 13:12:14;;;;;;;;;1.00;1.00;;;;;;;;5100551;27;28655;-79
2023/12/31 13:14:40;;;;;;;;;3.67;1.33;;;;;;;;5088410;27;28515;-81
2023/12/31 13:17:05;;;;;;;;;1.33;1.33;;;;;;;;5094999;27;28794;-80
2023/12/31 13:19:30;;;;;;;;;9.33;1.67;;;;;;;;5098049;27;28401;-81
2023/12/31 13:21:55;;;;;;;;;1.33;1.00;;;;;;;;5102784;27;28729;-80
2023/12/31 13:24:20;;;;;;;;;4.00;2.33;;;;;;;;5105582;27;28495;-81
2023/12/31 13:26:47;;;;;;;;;1.67;0.67;;;;;;;;5080925;27;29744;-81
2023/12/31 13:29:13;;;;;;;;;2.00;1.25;;;;;;;;5102051;27;28547;-82
2023/12/31 13:31:38;;;;;;;;;2.33;1.00;;;;;;;;5077732;28;28699;-81
2023/12/31 13:34:03;;;;;;;;;2.67;2.33;;;;;;;;5099063;27;28477;-81
2023/12/31 13:36:28;;;;;;;;;2.00;2.00;;;;;;;;5104363;27;29515;-80
2023/12/31 13:38:54;;;;;;;;;6.67;3.33;;;;;;;;5097021;27;28383;-81
2023/12/31 13:41:19;;;;;;;;;5.00;3.67;;;;;;;;5092742;27;28512;-79
2023/12/31 13:43:44;;;;;;;;;3.00;1.00;;;;;;;;5096163;27;29434;-80
2023/12/31 13:46:10;;;;;;;;;5.00;2.33;;;;;;;;5092415;27;28638;-80
2023/12/31 13:48:35;;;;;;;;;0.33;0.33;;;;;;;;5090147;27;29018;-80
2023/12/31 13:51:00;;;;;;;;;2.67;1.00;;;;;;;;5096095;27;28481;-80
2023/12/31 13:53:26;;;;;;;;;4.00;2.67;;;;;;;;5098773;27;28516;-79
2023/12/31 13:55:51;;;;;;;;;2.67;2.33;;;;;;;;5098217;27;28591;-79
2023/12/31 13:58:17;;;;;;;;;7.00;3.67;;;;;;;;5091124;27;28621;-79
2023/12/31 14:00:51;;;;;;;;;4.33;4.33;;;;;;;;5092548;27;28583;-81
2023/12/31 14:03:17;;;;;;;;;5.33;4.67;;;;;;;;5102450;27;28562;-81
2023/12/31 14:05:42;;;;;;;;;6.33;1.67;;;;;;;;5099380;27;28481;-78
2023/12/31 14:08:08;;;;;;;;;3.33;2.33;;;;;;;;5068664;27;28627;-82
2023/12/31 14:10:33;;;;;;;;;1.00;1.00;;;;;;;;5095850;27;28538;-83
2023/12/31 14:12:58;;;;;;;;;7.00;3.33;;;;;;;;5073164;27;29699;-79
2023/12/31 14:15:24;;;;;;;;;3.00;3.00;;;;;;;;5085721;27;30048;-79
2023/12/31 14:17:49;;;;;;;;;1.00;1.00;;;;;;;;5078829;27;28664;-79
2023/12/31 14:20:15;;;;;;;;;5.33;3.67;;;;;;;;5100679;27;28553;-80
2023/12/31 14:22:41;;;;;;;;;1.33;1.00;;;;;;;;5097034;27;28886;-80
2023/12/31 14:25:07;;;;;;;;;3.00;1.00;;;;;;;;5106818;27;28551;-79
2023/12/31 14:27:32;;;;;;;;;3.00;3.00;;;;;;;;5102720;27;28501;-79
2023/12/31 14:29:57;;;;;;;;;6.33;1.67;;;;;;;;5106817;27;28547;-80
2023/12/31 14:32:22;;;;;;;;;1.67;0.00;;;;;;;;5083049;27;28520;-84
2023/12/31 14:34:47;;;;;;;;;4.00;2.00;;;;;;;;5099743;27;28489;-81